createdAt,value
2023-04-02T00:01:02.634Z,88.02
2023-04-02T00:03:44.545Z,88.07
2023-04-02T00:06:45.332Z,87.33
2023-04-02T00:09:14.812Z,87.29
2023-04-02T00:11:44.611Z,87.64
2023-04-02T00:14:29.428Z,87.79
2023-04-02T00:16:58.078Z,87.68
2023-04-02T00:19:36.598Z,87.31
2023-04-02T00:22:07.628Z,87.02
2023-04-02T00:24:34.267Z,87.40
2023-04-02T00:27:00.964Z,87.33
2023-04-02T00:29:27.474Z,88.34
2023-04-02T00:31:54.708Z,87.79
2023-04-02T00:34:23.743Z,87.98
2023-04-02T00:36:51.031Z,88.27
2023-04-02T00:39:29.798Z,88.17
2023-04-02T00:42:04.777Z,88.53
2023-04-02T00:44:38.469Z,88.10
2023-04-02T00:47:31.796Z,88.52
2023-04-02T00:50:05.594Z,88.58
2023-04-02T00:52:32.989Z,88.03
2023-04-02T00:55:37.425Z,88.84
2023-04-02T00:58:15.649Z,87.44
2023-04-02T01:00:49.448Z,88.28
2023-04-02T01:03:19.377Z,87.95
2023-04-02T01:06:15.410Z,88.07
2023-04-02T01:09:05.953Z,87.45
2023-04-02T01:11:55.159Z,88.10
2023-04-02T01:14:37.364Z,87.67
2023-04-02T01:17:19.880Z,88.34
2023-04-02T01:20:01.468Z,88.30
2023-04-02T01:22:48.197Z,88.66
2023-04-02T01:25:24.918Z,88.77
2023-04-02T01:28:08.315Z,88.48
2023-04-02T01:30:36.538Z,88.29
2023-04-02T01:33:05.039Z,88.12
2023-04-02T01:35:36.494Z,88.42
2023-04-02T01:38:08.442Z,88.20
2023-04-02T01:40:54.424Z,87.76
2023-04-02T01:43:49.679Z,88.54
2023-04-02T01:46:31.963Z,88.22
2023-04-02T01:49:02.713Z,89.00
2023-04-02T01:51:33.291Z,89.12
2023-04-02T01:54:03.231Z,88.63
2023-04-02T01:56:30.447Z,89.38
2023-04-02T01:58:58.435Z,89.32
2023-04-02T02:01:32.042Z,89.79
2023-04-02T02:03:59.830Z,89.35
2023-04-02T02:06:26.372Z,90.18
2023-04-02T02:08:57.759Z,89.94
2023-04-02T02:11:28.205Z,89.46
2023-04-02T02:14:20.680Z,90.00
2023-04-02T02:16:48.221Z,89.68
2023-04-02T02:19:42.092Z,89.75
2023-04-02T02:22:14.389Z,90.47
2023-04-02T02:24:42.085Z,90.22
2023-04-02T02:27:23.626Z,89.67
2023-04-02T02:29:53.234Z,90.48
2023-04-02T02:32:23.592Z,89.89
2023-04-02T02:34:59.936Z,89.71
2023-04-02T02:37:33.800Z,89.97
2023-04-02T02:40:03.885Z,90.05
2023-04-02T02:42:54.370Z,90.22
2023-04-02T02:45:26.325Z,90.62
2023-04-02T02:47:55.326Z,90.89
2023-04-02T02:50:31.570Z,90.71
2023-04-02T02:53:00.441Z,91.71
2023-04-02T02:55:36.822Z,91.18
2023-04-02T02:58:09.637Z,91.48
2023-04-02T03:00:37.556Z,91.79
2023-04-02T03:03:22.007Z,91.91
2023-04-02T03:06:02.102Z,92.40
2023-04-02T03:08:41.644Z,91.89
2023-04-02T03:11:49.694Z,92.52
2023-04-02T03:14:31.743Z,92.35
2023-04-02T03:17:14.793Z,92.94
2023-04-02T03:19:48.970Z,93.48
2023-04-02T03:22:24.059Z,93.60
2023-04-02T03:25:05.771Z,93.94
2023-04-02T03:27:39.280Z,93.81
2023-04-02T03:30:39.775Z,93.36
2023-04-02T03:33:38.753Z,94.11
2023-04-02T03:36:14.101Z,93.83
2023-04-02T03:38:51.926Z,94.44
2023-04-02T03:41:29.388Z,94.78
2023-04-02T03:44:00.656Z,94.90
2023-04-02T03:46:49.230Z,94.18
2023-04-02T03:49:34.812Z,94.48
2023-04-02T03:52:13.397Z,95.83
2023-04-02T03:54:40.860Z,95.54
2023-04-02T03:57:23.780Z,95.48
2023-04-02T04:00:08.295Z,95.83
2023-04-02T04:02:42.974Z,95.17
2023-04-02T04:05:22.666Z,95.66
2023-04-02T04:07:53.522Z,95.10
2023-04-02T04:10:25.931Z,95.29
2023-04-02T04:12:56.712Z,94.86
2023-04-02T04:15:42.843Z,95.68
2023-04-02T04:18:21.580Z,94.84
2023-04-02T04:20:57.237Z,95.32
2023-04-02T04:23:32.719Z,95.08
2023-04-02T04:26:09.858Z,94.65
2023-04-02T04:28:48.893Z,94.89
2023-04-02T04:31:22.833Z,94.43
2023-04-02T04:34:03.061Z,95.02
2023-04-02T04:36:36.660Z,95.63
2023-04-02T04:39:14.523Z,95.17
2023-04-02T04:41:43.037Z,95.31
2023-04-02T04:44:23.753Z,94.80
2023-04-02T04:47:01.906Z,94.97
2023-04-02T04:49:35.929Z,95.20
2023-04-02T04:52:14.473Z,94.99
2023-04-02T04:54:41.133Z,95.89
2023-04-02T04:57:22.237Z,95.80
2023-04-02T04:59:57.256Z,95.54
2023-04-02T05:02:30.239Z,96.36
2023-04-02T05:04:56.971Z,95.58
2023-04-02T05:07:29.357Z,96.06
2023-04-02T05:09:55.798Z,95.95
2023-04-02T05:12:43.684Z,95.92
2023-04-02T05:15:23.365Z,96.30
2023-04-02T05:18:02.071Z,95.68
2023-04-02T05:20:58.909Z,95.72
2023-04-02T05:23:30.958Z,95.80
2023-04-02T05:26:00.367Z,95.88
2023-04-02T05:28:40.624Z,96.81
2023-04-02T05:31:12.201Z,96.44
2023-04-02T05:33:40.485Z,96.12
2023-04-02T05:36:12.717Z,96.23
2023-04-02T05:38:44.921Z,96.23
2023-04-02T05:41:38.271Z,96.78
2023-04-02T05:44:29.856Z,96.79
2023-04-02T05:47:06.665Z,96.26
2023-04-02T05:49:32.977Z,96.91
2023-04-02T05:52:03.427Z,96.96
2023-04-02T05:54:44.040Z,96.89
2023-04-02T05:57:17.108Z,96.77
2023-04-02T05:59:49.755Z,96.46
2023-04-02T06:02:33.452Z,96.19
2023-04-02T06:05:06.559Z,96.86
2023-04-02T06:07:41.944Z,96.89
2023-04-02T06:10:24.624Z,97.13
2023-04-02T06:13:03.428Z,97.09
2023-04-02T06:15:32.341Z,97.18
2023-04-02T06:18:00.464Z,96.98
2023-04-02T06:20:27.521Z,97.65
2023-04-02T06:23:02.297Z,97.04
2023-04-02T06:25:33.637Z,96.50
2023-04-02T06:28:03.696Z,97.79
2023-04-02T06:30:37.784Z,96.88
2023-04-02T06:33:05.671Z,97.32
2023-04-02T06:35:35.595Z,96.89
2023-04-02T06:38:06.308Z,97.41
2023-04-02T06:40:38.831Z,97.31
2023-04-02T06:43:14.509Z,97.40
2023-04-02T06:45:43.420Z,97.12
2023-04-02T06:48:19.809Z,96.72
2023-04-02T06:50:59.505Z,97.17
2023-04-02T06:53:46.961Z,95.89
2023-04-02T06:56:19.801Z,96.02
2023-04-02T06:58:46.482Z,97.41
2023-04-02T07:01:23.791Z,96.57
2023-04-02T07:03:50.427Z,96.54
2023-04-02T07:06:19.157Z,96.25
2023-04-02T07:08:45.654Z,95.90
2023-04-02T07:11:20.167Z,96.05
2023-04-02T07:13:47.939Z,95.26
2023-04-02T07:16:17.455Z,96.50
2023-04-02T07:18:44.605Z,96.14
2023-04-02T07:21:11.239Z,95.36
2023-04-02T07:23:37.996Z,94.71
2023-04-02T07:26:05.770Z,95.15
2023-04-02T07:28:32.696Z,95.73
2023-04-02T07:30:59.256Z,95.39
2023-04-02T07:33:28.670Z,94.82
2023-04-02T07:35:57.571Z,94.95
2023-04-02T07:38:24.497Z,94.58
2023-04-02T07:40:50.940Z,94.92
2023-04-02T07:43:17.328Z,93.89
2023-04-02T07:45:43.797Z,93.74
2023-04-02T07:48:14.041Z,95.19
2023-04-02T07:50:40.744Z,95.04
2023-04-02T07:53:08.744Z,94.41
2023-04-02T07:55:35.540Z,94.61
2023-04-02T07:58:03.268Z,94.01
2023-04-02T08:00:29.786Z,93.86
2023-04-02T08:02:56.560Z,94.12
2023-04-02T08:05:23.149Z,94.87
2023-04-02T08:07:57.078Z,95.11
2023-04-02T08:10:23.872Z,95.09
2023-04-02T08:12:50.510Z,94.35
2023-04-02T08:15:17.663Z,93.71
2023-04-02T08:17:44.340Z,93.60
2023-04-02T08:20:22.549Z,94.70
2023-04-02T08:22:50.083Z,94.66
2023-04-02T08:25:17.159Z,94.57
2023-04-02T08:27:46.947Z,94.98
2023-04-02T08:30:14.616Z,93.69
2023-04-02T08:32:41.435Z,94.16
2023-04-02T08:35:10.916Z,95.78
2023-04-02T08:37:38.105Z,95.04
2023-04-02T08:40:07.290Z,94.28
2023-04-02T08:42:42.782Z,95.08
2023-04-02T08:45:43.331Z,94.98
2023-04-02T08:48:11.786Z,95.38
2023-04-02T08:50:41.498Z,95.59
2023-04-02T08:53:22.182Z,96.23
2023-04-02T08:56:05.693Z,95.04
2023-04-02T08:59:03.317Z,94.94
2023-04-02T09:01:34.964Z,95.00
2023-04-02T09:04:05.337Z,95.00
2023-04-02T09:06:34.566Z,95.58
2023-04-02T09:09:01.174Z,96.01
2023-04-02T09:11:36.098Z,95.82
2023-04-02T09:14:10.057Z,96.01
2023-04-02T09:16:42.104Z,95.99
2023-04-02T09:19:40.240Z,96.19
2023-04-02T09:22:16.530Z,96.34
2023-04-02T09:24:42.890Z,95.33
2023-04-02T09:27:24.542Z,95.39
2023-04-02T09:30:03.916Z,95.44
2023-04-02T09:32:50.127Z,95.37
2023-04-02T09:35:26.163Z,95.37
2023-04-02T09:38:15.347Z,93.88
2023-04-02T09:40:51.058Z,94.83
2023-04-02T09:43:38.310Z,95.04
2023-04-02T09:46:13.686Z,94.04
2023-04-02T09:48:58.350Z,95.06
2023-04-02T09:51:31.903Z,94.79
2023-04-02T09:54:04.140Z,94.34
2023-04-02T09:56:32.918Z,94.92
2023-04-02T09:59:07.044Z,95.59
2023-04-02T10:01:35.444Z,95.00
2023-04-02T10:04:03.898Z,94.12
2023-04-02T10:06:31.819Z,93.44
2023-04-02T10:08:59.313Z,94.31
2023-04-02T10:11:45.758Z,94.48
2023-04-02T10:14:21.609Z,93.83
2023-04-02T10:16:55.881Z,94.81
2023-04-02T10:19:34.594Z,94.20
2023-04-02T10:22:06.168Z,93.80
2023-04-02T10:24:32.692Z,95.11
2023-04-02T10:27:37.564Z,94.16
2023-04-02T10:30:19.204Z,94.43
2023-04-02T10:32:54.826Z,94.08
2023-04-02T10:35:44.737Z,94.01
2023-04-02T10:38:27.940Z,93.85
2023-04-02T10:40:59.319Z,94.39
2023-04-02T10:43:50.827Z,94.28
2023-04-02T10:46:32.535Z,92.95
2023-04-02T10:49:23.993Z,93.73
2023-04-02T10:52:09.007Z,93.33
2023-04-02T10:55:04.136Z,93.46
2023-04-02T10:57:36.848Z,93.65
2023-04-02T11:00:15.698Z,93.14
2023-04-02T11:03:02.675Z,94.29
2023-04-02T11:05:40.196Z,94.32
2023-04-02T11:08:21.327Z,93.49
2023-04-02T11:10:57.741Z,94.65
2023-04-02T11:13:36.513Z,93.84
2023-04-02T11:16:03.777Z,93.62
2023-04-02T11:18:38.757Z,93.97
2023-04-02T11:21:54.926Z,93.60
2023-04-02T11:24:33.798Z,94.65
2023-04-02T11:27:14.308Z,94.44
2023-04-02T11:29:53.808Z,94.22
2023-04-02T11:32:20.529Z,94.69
2023-04-02T11:34:49.533Z,92.97
2023-04-02T11:37:34.210Z,94.09
2023-04-02T11:40:10.852Z,93.61
2023-04-02T11:42:48.461Z,93.16
2023-04-02T11:45:23.862Z,92.48
2023-04-02T11:48:02.103Z,92.73
2023-04-02T11:50:40.542Z,92.39
2023-04-02T11:53:14.660Z,91.07
2023-04-02T11:55:46.069Z,91.38
2023-04-02T11:58:22.725Z,91.28
2023-04-02T12:01:30.187Z,91.94
2023-04-02T12:04:26.883Z,92.37
2023-04-02T12:07:38.035Z,93.06
2023-04-02T12:10:19.658Z,93.09
2023-04-02T12:12:46.891Z,93.49
2023-04-02T12:15:32.370Z,93.76
2023-04-02T12:18:17.287Z,90.46
2023-04-02T12:20:50.806Z,91.43
2023-04-02T12:23:32.146Z,90.88
2023-04-02T12:26:01.270Z,90.68
2023-04-02T12:28:29.051Z,89.94
2023-04-02T12:31:13.071Z,90.81
2023-04-02T12:33:40.931Z,90.93
2023-04-02T12:36:17.942Z,90.63
2023-04-02T12:38:56.506Z,90.12
2023-04-02T12:41:32.230Z,90.95
2023-04-02T12:44:00.281Z,87.97
2023-04-02T12:46:28.142Z,88.64
2023-04-02T12:49:05.016Z,87.11
2023-04-02T12:51:34.202Z,88.24
2023-04-02T12:54:01.175Z,88.25
2023-04-02T12:56:27.704Z,89.14
2023-04-02T12:58:54.104Z,87.26
2023-04-02T13:01:27.597Z,87.32
2023-04-02T13:04:14.808Z,87.29
2023-04-02T13:06:48.552Z,89.01
2023-04-02T13:09:35.168Z,88.51
2023-04-02T13:12:02.970Z,86.67
2023-04-02T13:14:30.540Z,88.31
2023-04-02T13:16:57.347Z,86.90
2023-04-02T13:19:34.040Z,88.88
2023-04-02T13:22:02.195Z,88.84
2023-04-02T13:24:33.455Z,88.39
2023-04-02T13:27:01.978Z,88.04
2023-04-02T13:29:30.329Z,87.71
2023-04-02T13:32:02.978Z,88.76
2023-04-02T13:34:30.017Z,88.49
2023-04-02T13:37:00.285Z,88.47
2023-04-02T13:39:27.165Z,89.60
2023-04-02T13:41:59.698Z,89.71
2023-04-02T13:44:34.541Z,89.50
2023-04-02T13:47:01.778Z,89.12
2023-04-02T13:49:28.455Z,89.20
2023-04-02T13:52:03.116Z,89.24
2023-04-02T13:54:49.348Z,89.24
2023-04-02T13:57:15.921Z,89.59
2023-04-02T13:59:42.561Z,89.48
2023-04-02T14:02:15.458Z,90.15
2023-04-02T14:04:48.586Z,90.69
2023-04-02T14:07:38.788Z,90.34
2023-04-02T14:10:40.529Z,89.57
2023-04-02T14:13:28.605Z,89.52
2023-04-02T14:16:11.914Z,90.46
2023-04-02T14:18:50.948Z,91.05
2023-04-02T14:21:31.168Z,90.54
2023-04-02T14:24:17.855Z,89.71
2023-04-02T14:26:50.359Z,89.85
2023-04-02T14:29:31.465Z,89.97
2023-04-02T14:32:14.926Z,90.53
2023-04-02T14:35:26.737Z,89.42
2023-04-02T14:38:20.429Z,89.94
2023-04-02T14:40:51.429Z,90.70
2023-04-02T14:43:27.774Z,88.59
2023-04-02T14:46:06.087Z,88.07
2023-04-02T14:48:54.494Z,89.34
2023-04-02T14:51:37.946Z,88.30
2023-04-02T14:54:12.237Z,86.28
2023-04-02T14:56:49.788Z,87.72
2023-04-02T14:59:25.539Z,89.57
2023-04-02T15:01:58.668Z,88.88
2023-04-02T15:04:52.674Z,88.42
2023-04-02T15:07:24.024Z,87.23
2023-04-02T15:10:02.054Z,88.41
2023-04-02T15:12:35.992Z,86.34
2023-04-02T15:15:24.395Z,86.82
2023-04-02T15:17:58.423Z,87.01
2023-04-02T15:20:25.886Z,86.31
2023-04-02T15:23:01.904Z,87.15
2023-04-02T15:25:43.220Z,87.97
2023-04-02T15:28:12.432Z,87.56
2023-04-02T15:30:44.881Z,87.24
2023-04-02T15:33:54.359Z,85.58
2023-04-02T15:36:41.606Z,85.40
2023-04-02T15:39:22.964Z,86.54
2023-04-02T15:42:25.408Z,86.87
2023-04-02T15:45:10.623Z,86.68
2023-04-02T15:47:52.172Z,86.98
2023-04-02T15:50:44.099Z,86.27
2023-04-02T15:53:45.887Z,86.77
2023-04-02T15:56:26.336Z,87.93
2023-04-02T15:59:08.512Z,86.60
2023-04-02T16:01:47.646Z,85.78
2023-04-02T16:04:23.321Z,85.93
2023-04-02T16:07:12.454Z,85.82
2023-04-02T16:10:18.008Z,84.67
2023-04-02T16:12:51.493Z,83.46
2023-04-02T16:15:24.377Z,83.59
2023-04-02T16:18:01.492Z,82.75
2023-04-02T16:20:34.101Z,81.61
2023-04-02T16:23:07.059Z,82.34
2023-04-02T16:25:59.130Z,81.35
2023-04-02T16:28:39.951Z,81.44
2023-04-02T16:31:37.543Z,80.54
2023-04-02T16:34:24.207Z,79.80
2023-04-02T16:37:19.764Z,79.89
2023-04-02T16:40:29.749Z,79.53
2023-04-02T16:42:59.301Z,77.87
2023-04-02T16:45:48.267Z,78.58
2023-04-02T16:48:33.182Z,78.47
2023-04-02T16:51:12.544Z,76.82
2023-04-02T16:54:02.305Z,77.68
2023-04-02T16:56:36.450Z,77.13
2023-04-02T16:59:09.452Z,76.93
2023-04-02T17:01:59.861Z,77.21
2023-04-02T17:04:53.427Z,78.53
2023-04-02T17:07:28.627Z,78.02
2023-04-02T17:10:14.102Z,78.59
2023-04-02T17:12:52.475Z,77.38
2023-04-02T17:15:28.285Z,77.58
2023-04-02T17:18:00.273Z,78.08
2023-04-02T17:20:27.480Z,78.07
2023-04-02T17:22:56.004Z,77.95
2023-04-02T17:25:33.962Z,78.80
2023-04-02T17:28:02.528Z,79.03
2023-04-02T17:30:41.154Z,78.14
2023-04-02T17:33:13.183Z,79.16
2023-04-02T17:35:39.529Z,78.10
2023-04-02T17:38:30.724Z,78.08
2023-04-02T17:41:23.258Z,79.31
2023-04-02T17:44:00.847Z,79.32
2023-04-02T17:46:53.360Z,78.39
2023-04-02T17:49:37.718Z,79.37
2023-04-02T17:52:18.485Z,79.49
2023-04-02T17:55:07.225Z,79.46
2023-04-02T17:58:01.470Z,79.35
2023-04-02T18:00:41.338Z,81.22
2023-04-02T18:03:31.859Z,79.77
2023-04-02T18:06:06.620Z,79.62
2023-04-02T18:08:42.383Z,79.24
2023-04-02T18:11:27.636Z,80.54
2023-04-02T18:14:00.533Z,80.26
2023-04-02T18:16:32.995Z,80.09
2023-04-02T18:19:14.799Z,80.02
2023-04-02T18:22:00.127Z,79.39
2023-04-02T18:24:49.320Z,79.47
2023-04-02T18:27:21.908Z,78.76
2023-04-02T18:30:06.643Z,79.77
2023-04-02T18:32:47.070Z,79.80
2023-04-02T18:35:16.931Z,79.15
2023-04-02T18:37:43.516Z,78.15
2023-04-02T18:40:30.021Z,78.30
2023-04-02T18:43:10.428Z,78.26
2023-04-02T18:45:52.138Z,78.68
2023-04-02T18:48:28.890Z,79.78
2023-04-02T18:50:55.484Z,79.34
2023-04-02T18:53:24.833Z,79.71
2023-04-02T18:56:02.525Z,79.72
2023-04-02T18:58:40.858Z,78.89
2023-04-02T19:01:13.429Z,79.40
2023-04-02T19:03:46.481Z,80.52
2023-04-02T19:06:22.143Z,80.30
2023-04-02T19:08:55.349Z,79.58
2023-04-02T19:11:29.350Z,79.78
2023-04-02T19:13:59.954Z,79.83
2023-04-02T19:16:45.560Z,80.24
2023-04-02T19:19:20.919Z,78.89
2023-04-02T19:22:03.413Z,78.65
2023-04-02T19:24:59.077Z,77.66
2023-04-02T19:27:44.507Z,76.79
2023-04-02T19:30:48.176Z,77.49
2023-04-02T19:33:33.560Z,78.44
2023-04-02T19:36:15.079Z,78.49
2023-04-02T19:39:13.953Z,77.41
2023-04-02T19:41:56.409Z,77.18
2023-04-02T19:44:23.060Z,76.68
2023-04-02T19:46:51.384Z,76.50
2023-04-02T19:49:28.261Z,77.32
2023-04-02T19:51:55.713Z,77.11
2023-04-02T19:54:22.933Z,77.46
2023-04-02T19:56:50.132Z,78.62
2023-04-02T19:59:18.757Z,77.75
2023-04-02T20:01:46.687Z,78.20
2023-04-02T20:04:14.202Z,76.81
2023-04-02T20:06:41.016Z,76.66
2023-04-02T20:09:08.677Z,77.90
2023-04-02T20:11:37.210Z,77.59
2023-04-02T20:14:04.174Z,78.60
2023-04-02T20:16:31.258Z,78.38
2023-04-02T20:18:58.186Z,77.18
2023-04-02T20:21:24.809Z,76.92
2023-04-02T20:23:54.952Z,78.25
2023-04-02T20:26:22.710Z,77.55
2023-04-02T20:28:49.418Z,77.37
2023-04-02T20:31:18.652Z,77.62
2023-04-02T20:33:45.768Z,77.85
2023-04-02T20:36:15.779Z,76.73
2023-04-02T20:38:43.237Z,76.44
2023-04-02T20:41:10.379Z,75.54
2023-04-02T20:43:40.244Z,76.18
2023-04-02T20:46:09.438Z,77.12
2023-04-02T20:48:37.854Z,76.25
2023-04-02T20:51:07.274Z,76.36
2023-04-02T20:53:35.709Z,75.09
2023-04-02T20:56:29.461Z,74.11
2023-04-02T20:58:55.881Z,72.70
2023-04-02T21:01:28.006Z,73.55
2023-04-02T21:03:57.039Z,74.49
2023-04-02T21:06:25.566Z,73.40
2023-04-02T21:08:52.382Z,73.24
2023-04-02T21:11:19.556Z,72.59
2023-04-02T21:13:46.140Z,71.70
2023-04-02T21:16:20.964Z,71.84
2023-04-02T21:18:49.590Z,71.89
2023-04-02T21:21:16.617Z,71.80
2023-04-02T21:23:44.898Z,73.17
2023-04-02T21:26:17.776Z,72.92
2023-04-02T21:28:45.528Z,73.72
2023-04-02T21:31:18.291Z,74.02
2023-04-02T21:33:50.660Z,75.00
2023-04-02T21:36:23.060Z,73.76
2023-04-02T21:38:58.029Z,73.75
2023-04-02T21:41:30.240Z,73.81
2023-04-02T21:43:58.676Z,74.24
2023-04-02T21:46:27.810Z,74.44
2023-04-02T21:48:56.428Z,74.44
2023-04-02T21:51:25.869Z,74.46
2023-04-02T21:53:55.919Z,74.34
2023-04-02T21:56:25.213Z,73.41
2023-04-02T21:58:52.262Z,75.04
2023-04-02T22:01:27.463Z,74.12
2023-04-02T22:04:00.205Z,74.83
2023-04-02T22:06:29.763Z,73.86
2023-04-02T22:09:01.367Z,75.72
2023-04-02T22:11:30.469Z,74.96
2023-04-02T22:13:57.557Z,75.18
2023-04-02T22:16:27.347Z,75.77
2023-04-02T22:18:56.250Z,75.90
2023-04-02T22:21:23.107Z,75.19
2023-04-02T22:23:49.955Z,75.29
2023-04-02T22:26:18.016Z,75.19
2023-04-02T22:28:44.840Z,75.13
2023-04-02T22:31:22.003Z,75.55
2023-04-02T22:33:48.767Z,75.23
2023-04-02T22:36:16.605Z,76.01
2023-04-02T22:38:43.084Z,75.91
2023-04-02T22:41:18.042Z,75.69
2023-04-02T22:43:45.593Z,75.48
2023-04-02T22:46:14.581Z,76.69
2023-04-02T22:48:42.106Z,75.31
2023-04-02T22:51:10.272Z,76.32
2023-04-02T22:53:38.162Z,75.81
2023-04-02T22:56:13.736Z,76.19
2023-04-02T22:58:41.248Z,75.86
2023-04-02T23:01:12.121Z,75.89
2023-04-02T23:03:39.104Z,75.79
2023-04-02T23:06:11.013Z,76.22
2023-04-02T23:08:38.732Z,75.64
2023-04-02T23:11:14.333Z,76.42
2023-04-02T23:13:40.941Z,77.27
2023-04-02T23:16:10.693Z,76.86
2023-04-02T23:18:38.362Z,77.92
2023-04-02T23:21:06.041Z,77.26
2023-04-02T23:23:33.300Z,77.43
2023-04-02T23:26:12.191Z,77.59
2023-04-02T23:28:39.551Z,77.14
2023-04-02T23:31:08.222Z,77.35
2023-04-02T23:33:35.773Z,76.94
2023-04-02T23:36:10.318Z,76.74
2023-04-02T23:38:36.882Z,77.58
2023-04-02T23:41:03.399Z,77.89
2023-04-02T23:43:30.215Z,77.85
2023-04-02T23:45:56.790Z,77.58
2023-04-02T23:48:23.377Z,78.47
2023-04-02T23:50:49.939Z,78.11
2023-04-02T23:53:16.752Z,78.29
2023-04-02T23:55:43.186Z,78.83
2023-04-02T23:58:09.633Z,78.88
